Portada
METAR-TAF:

METAR-TAF

Aeropuertos :

Aeropuerto de Menorca

Menorca, España

latitud: 39-52N, longitud: 004-14E, altitud: 87 m

Observación

El informe se hizo hace 26 minutos, a las 18:30 UTC
Viento 4 kt del este-sureste, variando entre norte-noreste y sureste
Temperatura 18°C
Humedad 68%
Presión 1027 hPa
Visibilidad 10 km o más
sin nubes por debajo de 1500 m y sin presencia de cumulonimbus.

METAR: LEMH 191830Z 12004KT 030V140 CAVOK 18/12 Q1027

Hora: 20:56 (18:56 UTC)

Pronóstico

El informe se hizo hace 4 horas y 56 minutos, a las 14:00 UTC
Pronóstico válido del 19 a las 15 UTC al 20 a las 15 UTC
Viento 5 kt del sur-sureste
Visibilidad 10 km o más
Nubes dispersas a una altura de 3000 ft

TAF: LEMH 191400Z 1915/2015 16005KT 9999 SCT030 TX24/2012Z TN14/2006Z

Observaciones y pronósticos meteorológicos de más de 4000 aeropuertos (mensajes METAR y TAF).

Los puntos amarillos y rojos representan las estaciones disponibles.

Ponga el ratón en el punto deseado para ver el nombre de la estación.

Haga clic para ver las observaciones y los pronósticos meteorológicos.

Para cambiar el mapa : haga clic en los botones verdes con una cruz de color negro para hacer un zoom, en el botón verde con un guión para alejar o en las flechas verdes para mapas adyacentes.


METAR-TAF: